createdAt,value
2023-01-11T00:01:06.953Z,6.11
2023-01-11T00:03:35.108Z,6.09
2023-01-11T00:06:04.790Z,6.04
2023-01-11T00:08:32.462Z,5.99
2023-01-11T00:11:02.473Z,5.98
2023-01-11T00:13:30.558Z,5.91
2023-01-11T00:15:58.319Z,5.83
2023-01-11T00:18:26.096Z,5.74
2023-01-11T00:20:53.729Z,5.68
2023-01-11T00:23:21.425Z,5.64
2023-01-11T00:25:49.113Z,5.62
2023-01-11T00:28:16.904Z,5.57
2023-01-11T00:30:44.586Z,5.52
2023-01-11T00:33:12.375Z,5.43
2023-01-11T00:35:40.645Z,5.30
2023-01-11T00:38:08.281Z,5.24
2023-01-11T00:40:35.941Z,5.17
2023-01-11T00:43:22.138Z,5.07
2023-01-11T00:46:08.964Z,4.97
2023-01-11T00:48:36.661Z,4.88
2023-01-11T00:51:04.320Z,4.78
2023-01-11T00:53:31.966Z,4.70
2023-01-11T00:55:59.891Z,4.63
2023-01-11T00:58:27.514Z,4.52
2023-01-11T01:00:55.139Z,4.45
2023-01-11T01:03:22.853Z,4.40
2023-01-11T01:05:54.018Z,4.37
2023-01-11T01:08:22.042Z,4.36
2023-01-11T01:10:51.545Z,4.29
2023-01-11T01:13:37.999Z,4.25
2023-01-11T01:16:05.832Z,4.23
2023-01-11T01:18:33.857Z,4.22
2023-01-11T01:21:01.499Z,4.22
2023-01-11T01:23:29.178Z,4.22
2023-01-11T01:25:56.817Z,4.17
2023-01-11T01:28:25.186Z,4.06
2023-01-11T01:30:52.977Z,3.98
2023-01-11T01:33:20.627Z,3.94
2023-01-11T01:35:48.275Z,3.90
2023-01-11T01:38:15.918Z,3.77
2023-01-11T01:40:44.295Z,3.58
2023-01-11T01:43:12.431Z,3.43
2023-01-11T01:45:41.524Z,3.30
2023-01-11T01:48:19.846Z,3.21
2023-01-11T01:50:53.781Z,3.15
2023-01-11T01:53:26.539Z,3.10
2023-01-11T01:55:55.111Z,3.09
2023-01-11T01:58:24.914Z,3.09
2023-01-11T02:00:52.623Z,3.12
2023-01-11T02:03:21.411Z,3.13
2023-01-11T02:05:49.124Z,3.16
2023-01-11T02:08:23.003Z,3.19
2023-01-11T02:10:51.276Z,3.23
2023-01-11T02:13:18.979Z,3.25
2023-01-11T02:15:46.688Z,3.24
2023-01-11T02:18:14.436Z,3.25
2023-01-11T02:20:55.259Z,3.23
2023-01-11T02:23:55.907Z,3.22
2023-01-11T02:26:29.397Z,3.22
2023-01-11T02:29:05.578Z,3.24
2023-01-11T02:31:52.258Z,3.23
2023-01-11T02:34:19.949Z,3.23
2023-01-11T02:36:56.629Z,3.25
2023-01-11T02:39:27.044Z,3.25
2023-01-11T02:42:15.180Z,3.27
2023-01-11T02:45:03.518Z,3.28
2023-01-11T02:47:37.775Z,3.28
2023-01-11T02:50:13.838Z,3.28
2023-01-11T02:52:44.369Z,3.30
2023-01-11T02:55:12.178Z,3.31
2023-01-11T02:57:39.782Z,3.32
2023-01-11T03:00:07.828Z,3.31
2023-01-11T03:02:35.736Z,3.29
2023-01-11T03:05:06.120Z,3.27
2023-01-11T03:07:33.789Z,3.26
2023-01-11T03:10:04.433Z,3.29
2023-01-11T03:12:57.100Z,3.30
2023-01-11T03:15:30.591Z,3.27
2023-01-11T03:18:11.148Z,3.26
2023-01-11T03:20:41.289Z,3.29
2023-01-11T03:23:14.734Z,3.31
2023-01-11T03:25:48.671Z,3.26
2023-01-11T03:28:16.368Z,3.25
2023-01-11T03:30:52.206Z,3.26
2023-01-11T03:33:22.333Z,3.28
2023-01-11T03:35:58.875Z,3.29
2023-01-11T03:38:41.796Z,3.24
2023-01-11T03:41:11.340Z,3.20
2023-01-11T03:43:39.193Z,3.19
2023-01-11T03:46:08.964Z,3.18
2023-01-11T03:48:39.577Z,3.16
2023-01-11T03:51:08.907Z,3.18
2023-01-11T03:53:37.023Z,3.24
2023-01-11T03:56:05.759Z,3.25
2023-01-11T03:58:33.408Z,3.27
2023-01-11T04:01:01.206Z,3.29
2023-01-11T04:03:29.496Z,3.32
2023-01-11T04:05:58.763Z,3.32
2023-01-11T04:08:26.968Z,3.33
2023-01-11T04:10:57.415Z,3.33
2023-01-11T04:13:25.128Z,3.29
2023-01-11T04:15:53.516Z,3.28
2023-01-11T04:18:21.189Z,3.28
2023-01-11T04:20:48.788Z,3.24
2023-01-11T04:23:16.440Z,3.19
2023-01-11T04:25:44.301Z,3.17
2023-01-11T04:28:11.947Z,3.15
2023-01-11T04:30:39.648Z,3.14
2023-01-11T04:33:07.354Z,3.12
2023-01-11T04:35:35.072Z,3.08
2023-01-11T04:38:02.892Z,3.00
2023-01-11T04:40:30.563Z,2.94
2023-01-11T04:43:02.240Z,2.89
2023-01-11T04:45:30.539Z,2.87
2023-01-11T04:47:58.465Z,2.82
2023-01-11T04:50:26.391Z,2.79
2023-01-11T04:52:54.171Z,2.82
2023-01-11T04:55:22.226Z,2.87
2023-01-11T04:57:49.953Z,2.87
2023-01-11T05:00:17.943Z,2.84
2023-01-11T05:02:45.640Z,2.83
2023-01-11T05:05:13.400Z,2.82
2023-01-11T05:07:41.143Z,2.81
2023-01-11T05:10:09.193Z,2.82
2023-01-11T05:12:36.872Z,2.81
2023-01-11T05:15:04.824Z,2.76
2023-01-11T05:17:32.491Z,2.75
2023-01-11T05:20:00.214Z,2.75
2023-01-11T05:22:27.878Z,2.75
2023-01-11T05:24:55.668Z,2.75
2023-01-11T05:27:23.324Z,2.75
2023-01-11T05:29:51.025Z,2.74
2023-01-11T05:32:18.643Z,2.71
2023-01-11T05:34:46.507Z,2.72
2023-01-11T05:37:14.165Z,2.77
2023-01-11T05:39:41.907Z,2.80
2023-01-11T05:42:09.646Z,2.86
2023-01-11T05:44:58.177Z,2.93
2023-01-11T05:47:25.972Z,2.96
2023-01-11T05:49:53.618Z,2.97
2023-01-11T05:52:21.293Z,3.01
2023-01-11T05:54:48.941Z,3.02
2023-01-11T05:57:16.555Z,3.02
2023-01-11T05:59:44.207Z,3.01
2023-01-11T06:02:12.014Z,3.02
2023-01-11T06:04:39.756Z,3.06
2023-01-11T06:07:09.914Z,3.04
2023-01-11T06:09:37.893Z,3.03
2023-01-11T06:12:05.806Z,3.04
2023-01-11T06:14:33.753Z,3.06
2023-01-11T06:17:02.762Z,3.08
2023-01-11T06:19:30.699Z,3.05
2023-01-11T06:21:58.780Z,3.02
2023-01-11T06:24:26.454Z,3.04
2023-01-11T06:26:54.170Z,3.07
2023-01-11T06:29:22.076Z,3.07
2023-01-11T06:31:49.747Z,3.07
2023-01-11T06:34:17.432Z,3.10
2023-01-11T06:36:45.126Z,3.16
2023-01-11T06:39:12.806Z,3.19
2023-01-11T06:41:40.463Z,3.22
2023-01-11T06:44:09.591Z,3.27
2023-01-11T06:46:37.663Z,3.30
2023-01-11T06:49:05.285Z,3.31
2023-01-11T06:51:33.085Z,3.32
2023-01-11T06:54:00.784Z,3.33
2023-01-11T06:56:28.469Z,3.31
2023-01-11T06:58:56.161Z,3.31
2023-01-11T07:01:25.030Z,3.31
2023-01-11T07:03:52.811Z,3.37
2023-01-11T07:06:20.499Z,3.43
2023-01-11T07:08:48.206Z,3.47
2023-01-11T07:11:16.107Z,3.48
2023-01-11T07:13:43.881Z,3.48
2023-01-11T07:16:11.625Z,3.52
2023-01-11T07:18:39.422Z,3.54
2023-01-11T07:21:07.136Z,3.54
2023-01-11T07:23:34.764Z,3.55
2023-01-11T07:26:02.544Z,3.58
2023-01-11T07:28:30.752Z,3.66
2023-01-11T07:30:59.956Z,3.75
2023-01-11T07:33:27.902Z,3.83
2023-01-11T07:35:55.759Z,3.91
2023-01-11T07:38:23.516Z,3.97
2023-01-11T07:40:51.185Z,4.04
2023-01-11T07:43:23.203Z,4.11
2023-01-11T07:45:51.462Z,4.15
2023-01-11T07:48:21.233Z,4.19
2023-01-11T07:50:49.211Z,4.23
2023-01-11T07:53:18.916Z,4.30
2023-01-11T07:55:47.509Z,4.38
2023-01-11T07:58:15.723Z,4.41
2023-01-11T08:00:43.399Z,4.47
2023-01-11T08:03:11.301Z,4.52
2023-01-11T08:05:39.292Z,4.56
2023-01-11T08:08:07.071Z,4.58
2023-01-11T08:10:34.805Z,4.64
2023-01-11T08:13:21.388Z,4.71
2023-01-11T08:15:49.111Z,4.84
2023-01-11T08:18:17.495Z,5.07
2023-01-11T08:20:45.778Z,5.25
2023-01-11T08:23:13.687Z,5.45
2023-01-11T08:25:41.375Z,5.68
2023-01-11T08:28:09.133Z,5.87
2023-01-11T08:30:37.213Z,5.96
2023-01-11T08:33:05.302Z,6.03
2023-01-11T08:35:36.872Z,6.18
2023-01-11T08:38:04.633Z,6.45
2023-01-11T08:40:32.636Z,6.60
2023-01-11T08:43:00.298Z,6.66
2023-01-11T08:45:27.967Z,6.79
2023-01-11T08:47:55.616Z,6.90
2023-01-11T08:50:23.335Z,6.94
2023-01-11T08:52:51.663Z,6.91
2023-01-11T08:55:19.684Z,6.81
2023-01-11T08:57:47.418Z,6.70
2023-01-11T09:00:15.408Z,6.67
2023-01-11T09:02:45.258Z,6.68
2023-01-11T09:05:13.121Z,6.66
2023-01-11T09:07:40.837Z,6.63
2023-01-11T09:10:08.804Z,6.59
2023-01-11T09:12:36.624Z,6.55
2023-01-11T09:15:05.991Z,6.55
2023-01-11T09:17:33.899Z,6.59
2023-01-11T09:20:01.634Z,6.62
2023-01-11T09:22:29.290Z,6.70
2023-01-11T09:24:59.049Z,6.76
2023-01-11T09:27:26.767Z,6.87
2023-01-11T09:29:54.414Z,6.95
2023-01-11T09:32:22.238Z,7.00
2023-01-11T09:34:53.250Z,7.12
2023-01-11T09:37:22.620Z,7.35
2023-01-11T09:39:51.473Z,7.63
2023-01-11T09:42:22.427Z,7.82
2023-01-11T09:44:52.206Z,7.96
2023-01-11T09:47:29.627Z,8.00
2023-01-11T09:49:58.325Z,7.98
2023-01-11T09:52:30.456Z,7.97
2023-01-11T09:54:58.187Z,8.07
2023-01-11T09:57:42.053Z,8.14
2023-01-11T10:00:16.735Z,8.17
2023-01-11T10:03:04.372Z,8.38
2023-01-11T10:05:41.254Z,8.51
2023-01-11T10:18:39.684Z,8.59
2023-01-11T10:19:39.940Z,8.61
2023-01-11T10:22:12.190Z,8.59
2023-01-11T10:24:42.371Z,8.56
2023-01-11T10:27:25.970Z,8.56
2023-01-11T10:30:12.882Z,8.57
2023-01-11T10:33:00.518Z,8.66
2023-01-11T10:35:59.033Z,8.79
2023-01-11T10:38:40.902Z,8.76
2023-01-11T10:41:20.146Z,8.73
2023-01-11T10:43:49.859Z,8.69
2023-01-11T10:46:18.565Z,8.67
2023-01-11T10:48:46.537Z,8.69
2023-01-11T10:51:24.665Z,8.69
2023-01-11T10:57:02.455Z,8.68
2023-01-11T10:59:36.090Z,8.64
2023-01-11T11:02:25.548Z,8.67
2023-01-11T11:05:12.887Z,8.70
2023-01-11T11:07:50.386Z,8.72
2023-01-11T11:10:24.142Z,8.74
2023-01-11T11:13:15.261Z,8.74
2023-01-11T11:16:03.770Z,8.71
2023-01-11T11:18:31.500Z,8.74
2023-01-11T11:21:14.811Z,8.76
2023-01-11T11:23:42.524Z,8.78
2023-01-11T11:26:10.254Z,8.85
2023-01-11T11:28:40.298Z,8.92
2023-01-11T11:31:07.927Z,8.95
2023-01-11T11:33:36.417Z,8.93
2023-01-11T11:36:07.508Z,8.89
2023-01-11T11:38:36.188Z,8.78
2023-01-11T11:41:08.297Z,8.70
2023-01-11T11:43:36.936Z,8.68
2023-01-11T11:46:06.152Z,8.70
2023-01-11T11:48:34.421Z,8.75
2023-01-11T11:51:03.263Z,8.79
2023-01-11T11:53:38.690Z,8.85
2023-01-11T11:56:07.163Z,8.91
2023-01-11T11:58:34.829Z,8.94
2023-01-11T12:01:07.005Z,8.99
2023-01-11T12:03:34.655Z,9.01
2023-01-11T12:06:03.826Z,8.98
2023-01-11T12:08:32.786Z,8.98
2023-01-11T12:11:02.365Z,8.98
2023-01-11T12:13:37.246Z,9.00
2023-01-11T12:16:07.375Z,9.00
2023-01-11T12:18:41.410Z,9.03
2023-01-11T12:21:20.155Z,9.04
2023-01-11T12:23:48.266Z,9.04
2023-01-11T12:26:19.683Z,9.05
2023-01-11T12:28:56.633Z,9.00
2023-01-11T12:31:30.381Z,8.99
2023-01-11T12:34:10.520Z,8.96
2023-01-11T12:36:44.106Z,8.90
2023-01-11T12:39:15.518Z,8.79
2023-01-11T12:41:48.259Z,8.76
2023-01-11T12:44:16.106Z,8.76
2023-01-11T12:46:43.740Z,8.70
2023-01-11T12:49:11.443Z,8.61
2023-01-11T12:51:58.147Z,8.55
2023-01-11T12:54:41.319Z,8.46
2023-01-11T12:57:12.743Z,8.40
2023-01-11T12:59:50.045Z,8.33
2023-01-11T13:02:23.891Z,8.23
2023-01-11T13:04:51.700Z,8.18
2023-01-11T13:07:22.486Z,8.15
2023-01-11T13:10:04.401Z,8.09
2023-01-11T13:12:38.151Z,8.04
2023-01-11T13:15:05.869Z,8.03
2023-01-11T13:17:36.283Z,7.95
2023-01-11T13:20:13.283Z,7.90
2023-01-11T13:22:42.479Z,7.86
2023-01-11T13:25:36.852Z,7.85
2023-01-11T13:28:11.110Z,7.80
2023-01-11T13:30:41.339Z,7.76
2023-01-11T13:33:11.731Z,7.74
2023-01-11T13:35:41.332Z,7.70
2023-01-11T13:38:21.271Z,7.66
2023-01-11T13:40:49.860Z,7.62
2023-01-11T13:43:22.244Z,7.63
2023-01-11T13:45:59.221Z,7.64
2023-01-11T13:48:31.989Z,7.62
2023-01-11T13:51:01.587Z,7.59
2023-01-11T13:53:36.016Z,7.52
2023-01-11T13:56:26.783Z,7.48
2023-01-11T13:59:03.051Z,7.42
2023-01-11T14:01:43.127Z,7.39
2023-01-11T14:04:29.551Z,7.38
2023-01-11T14:07:17.107Z,7.35
2023-01-11T14:09:51.604Z,7.30
2023-01-11T14:12:19.524Z,7.27
2023-01-11T14:15:06.065Z,7.27
2023-01-11T14:17:40.169Z,7.30
2023-01-11T14:20:12.322Z,7.32
2023-01-11T14:22:46.684Z,7.32
2023-01-11T14:25:17.151Z,7.28
2023-01-11T14:27:47.788Z,7.19
2023-01-11T14:30:15.408Z,7.16
2023-01-11T14:33:01.760Z,7.17
2023-01-11T14:35:35.963Z,7.15
2023-01-11T14:38:03.617Z,7.13
2023-01-11T14:40:40.422Z,7.13
2023-01-11T14:43:30.244Z,7.12
2023-01-11T14:46:06.539Z,7.11
2023-01-11T14:48:36.239Z,7.11
2023-01-11T14:51:05.843Z,7.10
2023-01-11T14:53:39.768Z,7.08
2023-01-11T14:56:26.590Z,7.04
2023-01-11T14:59:17.387Z,6.96
2023-01-11T15:02:03.483Z,6.91
2023-01-11T15:04:32.197Z,6.91
2023-01-11T15:07:00.397Z,6.91
2023-01-11T15:09:47.575Z,6.96
2023-01-11T15:12:16.181Z,7.01
2023-01-11T15:14:47.522Z,7.08
2023-01-11T15:17:35.930Z,7.15
2023-01-11T15:20:14.101Z,7.21
2023-01-11T15:22:41.877Z,7.22
2023-01-11T15:25:26.152Z,7.19
2023-01-11T15:27:54.155Z,7.23
2023-01-11T15:30:31.250Z,7.24
2023-01-11T15:33:17.604Z,7.19
2023-01-11T15:35:57.832Z,7.16
2023-01-11T15:38:25.434Z,7.14
2023-01-11T15:40:53.101Z,7.11
2023-01-11T15:43:37.980Z,7.09
2023-01-11T15:46:37.006Z,7.06
2023-01-11T15:49:04.771Z,7.03
2023-01-11T15:51:51.796Z,7.00
2023-01-11T15:54:25.499Z,6.99
2023-01-11T15:57:06.193Z,7.01
2023-01-11T15:59:52.677Z,7.04
2023-01-11T16:02:38.277Z,7.03
2023-01-11T16:05:25.779Z,7.05
2023-01-11T16:08:02.384Z,7.08
2023-01-11T16:10:42.876Z,7.08
2023-01-11T16:13:20.077Z,7.08
2023-01-11T16:16:03.113Z,7.13
2023-01-11T16:18:34.514Z,7.18
2023-01-11T16:21:03.508Z,7.22
2023-01-11T16:23:32.053Z,7.23
2023-01-11T16:26:00.109Z,7.23
2023-01-11T16:28:28.209Z,7.26
2023-01-11T16:31:00.253Z,7.28
2023-01-11T16:33:29.486Z,7.30
2023-01-11T16:36:04.185Z,7.31
2023-01-11T16:38:32.040Z,7.27
2023-01-11T16:41:00.563Z,7.26
2023-01-11T16:43:31.321Z,7.26
2023-01-11T16:45:59.020Z,7.25
2023-01-11T16:48:29.210Z,7.27
2023-01-11T16:50:58.148Z,7.26
2023-01-11T16:53:26.277Z,7.22
2023-01-11T16:55:53.934Z,7.13
2023-01-11T16:58:29.189Z,7.04
2023-01-11T17:01:01.257Z,7.00
2023-01-11T17:03:30.407Z,6.96
2023-01-11T17:06:02.728Z,6.96
2023-01-11T17:08:37.387Z,6.98
2023-01-11T17:11:14.609Z,7.01
2023-01-11T17:14:01.048Z,7.07
2023-01-11T17:16:29.422Z,7.09
2023-01-11T17:18:58.494Z,7.12
2023-01-11T17:21:26.835Z,7.13
2023-01-11T17:24:01.856Z,7.16
2023-01-11T17:26:34.058Z,7.17
2023-01-11T17:29:02.064Z,7.17
2023-01-11T17:31:31.840Z,7.18
2023-01-11T17:34:00.533Z,7.18
2023-01-11T17:36:28.308Z,7.17
2023-01-11T17:38:57.858Z,7.18
2023-01-11T17:41:44.875Z,7.21
2023-01-11T17:44:35.181Z,7.29
2023-01-11T17:47:03.453Z,7.34
2023-01-11T17:49:31.693Z,7.37
2023-01-11T17:52:21.310Z,7.39
2023-01-11T17:54:59.635Z,7.38
2023-01-11T17:57:27.528Z,7.38
2023-01-11T18:00:15.545Z,7.40
2023-01-11T18:02:43.313Z,7.40
2023-01-11T18:05:18.196Z,7.35
2023-01-11T18:07:50.865Z,7.32
2023-01-11T18:10:25.557Z,7.28
2023-01-11T18:12:53.364Z,7.24
2023-01-11T18:15:23.995Z,7.18
2023-01-11T18:17:57.191Z,7.15
2023-01-11T18:20:34.724Z,7.14
2023-01-11T18:23:05.272Z,7.14
2023-01-11T18:25:35.124Z,7.15
2023-01-11T18:28:11.922Z,7.19
2023-01-11T18:30:40.649Z,7.24
2023-01-11T18:33:12.874Z,7.25
2023-01-11T18:35:44.393Z,7.29
2023-01-11T18:38:25.446Z,7.29
2023-01-11T18:40:53.084Z,7.30
2023-01-11T18:43:25.297Z,7.31
2023-01-11T18:45:53.101Z,7.31
2023-01-11T18:48:20.822Z,7.32
2023-01-11T18:50:49.263Z,7.31
2023-01-11T18:53:17.113Z,7.31
2023-01-11T18:55:45.175Z,7.31
2023-01-11T18:58:13.079Z,7.29
2023-01-11T19:00:41.641Z,7.22
2023-01-11T19:03:09.957Z,7.18
2023-01-11T19:05:37.670Z,7.17
2023-01-11T19:08:05.690Z,7.18
2023-01-11T19:10:33.327Z,7.23
2023-01-11T19:13:01.710Z,7.24
2023-01-11T19:15:29.489Z,7.24
2023-01-11T19:17:57.209Z,7.24
2023-01-11T19:20:24.989Z,7.20
2023-01-11T19:22:52.732Z,7.16
2023-01-11T19:25:20.694Z,7.14
2023-01-11T19:27:49.689Z,7.13
2023-01-11T19:30:17.933Z,7.11
2023-01-11T19:32:50.242Z,7.08
2023-01-11T19:35:18.594Z,7.06
2023-01-11T19:37:46.570Z,7.09
2023-01-11T19:40:14.277Z,7.12
2023-01-11T19:42:41.882Z,7.14
2023-01-11T19:45:09.629Z,7.18
2023-01-11T19:47:37.589Z,7.19
2023-01-11T19:50:06.691Z,7.16
2023-01-11T19:52:34.579Z,7.12
2023-01-11T19:55:02.312Z,7.10
2023-01-11T19:57:37.238Z,7.10
2023-01-11T20:00:05.381Z,7.11
2023-01-11T20:02:39.657Z,7.05
2023-01-11T20:05:07.617Z,7.00
2023-01-11T20:07:35.275Z,6.95
2023-01-11T20:10:03.075Z,6.96
2023-01-11T20:12:30.895Z,6.98
2023-01-11T20:15:01.201Z,6.93
2023-01-11T20:17:29.158Z,6.85
2023-01-11T20:19:57.034Z,6.81
2023-01-11T20:22:24.777Z,6.78
2023-01-11T20:24:52.697Z,6.81
2023-01-11T20:27:20.383Z,6.85
2023-01-11T20:29:48.065Z,6.85
2023-01-11T20:32:35.486Z,6.83
2023-01-11T20:35:04.435Z,6.84
2023-01-11T20:37:32.158Z,6.86
2023-01-11T20:39:59.927Z,6.89
2023-01-11T20:42:27.558Z,6.87
2023-01-11T20:44:55.402Z,6.89
2023-01-11T20:47:23.112Z,6.92
2023-01-11T20:49:50.733Z,6.91
2023-01-11T20:52:18.468Z,6.88
2023-01-11T20:54:46.111Z,6.86
2023-01-11T20:57:13.789Z,6.81
2023-01-11T20:59:41.499Z,6.80
2023-01-11T21:02:09.831Z,6.78
2023-01-11T21:04:37.502Z,6.79
2023-01-11T21:07:05.183Z,6.81
2023-01-11T21:09:32.912Z,6.82
2023-01-11T21:12:00.702Z,6.90
2023-01-11T21:14:28.378Z,6.95
2023-01-11T21:16:56.096Z,6.91
2023-01-11T21:19:23.770Z,6.88
2023-01-11T21:21:51.645Z,6.88
2023-01-11T21:24:20.838Z,6.89
2023-01-11T21:26:49.085Z,6.85
2023-01-11T21:29:16.848Z,6.83
2023-01-11T21:31:44.523Z,6.83
2023-01-11T21:34:12.468Z,6.84
2023-01-11T21:36:40.560Z,6.86
2023-01-11T21:39:09.403Z,6.86
2023-01-11T21:42:03.304Z,6.86
2023-01-11T21:44:32.441Z,6.87
2023-01-11T21:47:03.774Z,6.86
2023-01-11T21:49:31.802Z,6.83
2023-01-11T21:51:59.419Z,6.80
2023-01-11T21:54:27.124Z,6.79
2023-01-11T21:56:54.815Z,6.80
2023-01-11T21:59:22.509Z,6.81
2023-01-11T22:01:50.383Z,6.89
2023-01-11T22:04:19.432Z,6.96
2023-01-11T22:06:51.131Z,7.00
2023-01-11T22:09:20.061Z,7.06
2023-01-11T22:11:47.882Z,7.03
2023-01-11T22:14:15.615Z,7.00
2023-01-11T22:16:43.353Z,6.95
2023-01-11T22:19:11.157Z,6.90
2023-01-11T22:21:38.792Z,6.91
2023-01-11T22:24:09.512Z,6.93
2023-01-11T22:26:39.064Z,7.02
2023-01-11T22:29:15.362Z,7.11
2023-01-11T22:31:43.583Z,7.15
2023-01-11T22:34:11.354Z,7.20
2023-01-11T22:36:39.515Z,7.24
2023-01-11T22:39:07.354Z,7.33
2023-01-11T22:41:35.409Z,7.37
2023-01-11T22:44:03.541Z,7.38
2023-01-11T22:46:31.332Z,7.36
2023-01-11T22:48:59.362Z,7.35
2023-01-11T22:51:27.283Z,7.32
2023-01-11T22:53:55.494Z,7.29
2023-01-11T22:56:25.674Z,7.28
2023-01-11T22:58:53.643Z,7.30
2023-01-11T23:01:25.066Z,7.32
2023-01-11T23:03:53.381Z,7.30
2023-01-11T23:06:22.531Z,7.30
2023-01-11T23:08:50.173Z,7.34
2023-01-11T23:11:38.885Z,7.41
2023-01-11T23:14:08.427Z,7.50
2023-01-11T23:16:36.373Z,7.60
2023-01-11T23:19:06.281Z,7.70
2023-01-11T23:21:39.200Z,7.80
2023-01-11T23:24:07.120Z,7.89
2023-01-11T23:26:34.740Z,7.95
2023-01-11T23:29:02.483Z,8.00
2023-01-11T23:31:30.763Z,8.03
2023-01-11T23:33:59.438Z,7.96
2023-01-11T23:36:28.433Z,7.89
2023-01-11T23:38:56.150Z,7.85
2023-01-11T23:41:42.656Z,7.84
2023-01-11T23:44:13.924Z,7.86
2023-01-11T23:47:00.462Z,7.87
2023-01-11T23:49:28.165Z,7.88
2023-01-11T23:51:56.111Z,7.83
2023-01-11T23:54:25.935Z,7.78
2023-01-11T23:56:53.574Z,7.74
2023-01-11T23:59:21.180Z,7.74
